METAR Formatted Surface Weather Observation
Issued by NWS

Home | Current Version | Previous Version | Text Only | Print | Product List | Glossary On
Versions: 1 2 3 4 5 6 7 8 9 10 11 12 13 14 15 16 17 18 19 20 21 22 23 24 25 26 27 28 29 30 31 32 33 34 35 36 37 38 39 40 41 42 43 44 45 46 47 48 49 50
000
SAUS42 KTAE 292055
MTRCTY
METAR KCTY 292053Z AUTO 16009KT 24/23 A2996 RMK AO1 PK WND
30029/2006 WSHFT 1940 SLP144 P0101 60101 T02390233 53011



USA.gov is the U.S. government's official web portal to all federal, state and local government web resources and services.